sensor_id;sensor_type;location;lat;lon;timestamp;pressure;altitude;pressure_sealevel;temperature;humidity
13033;BME280;6583;42.632;23.298;2023-07-31T00:00:11;69067.97;;;-146.40;71.55
13033;BME280;6583;42.632;23.298;2023-07-31T00:02:39;69063.94;;;-146.40;69.36
13033;BME280;6583;42.632;23.298;2023-07-31T00:05:06;69057.88;;;-146.40;72.39
13033;BME280;6583;42.632;23.298;2023-07-31T00:07:33;69057.88;;;-146.40;71.67
13033;BME280;6583;42.632;23.298;2023-07-31T00:09:59;69045.72;;;-146.40;69.03
13033;BME280;6583;42.632;23.298;2023-07-31T00:12:26;69041.69;;;-146.40;71.32
13033;BME280;6583;42.632;23.298;2023-07-31T00:14:53;69025.50;;;-146.40;69.77
13033;BME280;6583;42.632;23.298;2023-07-31T00:17:19;69015.38;;;-146.40;67.29
13033;BME280;6583;42.632;23.298;2023-07-31T00:19:47;69007.31;;;-146.40;69.18
13033;BME280;6583;42.632;23.298;2023-07-31T00:22:15;69001.25;;;-146.40;69.18
13033;BME280;6583;42.632;23.298;2023-07-31T00:24:43;68999.22;;;-146.40;69.42
13033;BME280;6583;42.632;23.298;2023-07-31T00:27:09;69003.25;;;-146.40;68.69
13033;BME280;6583;42.632;23.298;2023-07-31T00:29:36;69005.28;;;-146.40;70.44
13033;BME280;6583;42.632;23.298;2023-07-31T00:32:03;69013.38;;;-146.40;69.95
13033;BME280;6583;42.632;23.298;2023-07-31T00:34:30;69005.28;;;-146.40;69.45
13033;BME280;6583;42.632;23.298;2023-07-31T00:36:58;68995.16;;;-146.40;70.65
13033;BME280;6583;42.632;23.298;2023-07-31T00:39:24;68995.16;;;-146.40;68.20
13033;BME280;6583;42.632;23.298;2023-07-31T00:41:51;68987.09;;;-146.40;66.87
13033;BME280;6583;42.632;23.298;2023-07-31T00:44:18;68976.97;;;-146.40;67.65
13033;BME280;6583;42.632;23.298;2023-07-31T00:46:44;68970.91;;;-146.40;67.07
13033;BME280;6583;42.632;23.298;2023-07-31T00:49:11;68972.94;;;-146.40;65.60
13033;BME280;6583;42.632;23.298;2023-07-31T00:51:38;68968.88;;;-146.40;67.73
13033;BME280;6583;42.632;23.298;2023-07-31T00:54:07;68981.00;;;-146.40;70.22
13033;BME280;6583;42.632;23.298;2023-07-31T00:56:34;69005.28;;;-146.40;69.30
13033;BME280;6583;42.632;23.298;2023-07-31T00:59:00;69013.38;;;-146.40;68.24
13033;BME280;6583;42.632;23.298;2023-07-31T01:01:27;69017.41;;;-146.40;68.29
13033;BME280;6583;42.632;23.298;2023-07-31T01:03:54;69025.50;;;-146.40;69.29
13033;BME280;6583;42.632;23.298;2023-07-31T01:06:29;69033.59;;;-146.40;69.70
13033;BME280;6583;42.632;23.298;2023-07-31T01:09:01;69043.72;;;-146.40;70.25
13033;BME280;6583;42.632;23.298;2023-07-31T01:11:31;69061.91;;;-146.40;70.64
13033;BME280;6583;42.632;23.298;2023-07-31T01:13:59;69059.88;;;-146.40;69.33
13033;BME280;6583;42.632;23.298;2023-07-31T01:16:26;69067.97;;;-146.40;71.63
13033;BME280;6583;42.632;23.298;2023-07-31T01:18:53;69094.25;;;-146.40;73.20
13033;BME280;6583;42.632;23.298;2023-07-31T01:21:46;69104.38;;;-146.40;74.18
13033;BME280;6583;42.632;23.298;2023-07-31T01:24:23;69134.72;;;-146.40;75.13
13033;BME280;6583;42.632;23.298;2023-07-31T01:27:02;69134.72;;;-146.40;74.03
13033;BME280;6583;42.632;23.298;2023-07-31T01:29:35;69136.72;;;-146.40;73.80
13033;BME280;6583;42.632;23.298;2023-07-31T01:32:06;69142.81;;;-146.40;73.60
13033;BME280;6583;42.632;23.298;2023-07-31T01:34:34;69154.94;;;-146.40;75.48
13033;BME280;6583;42.632;23.298;2023-07-31T01:37:05;69156.97;;;-146.40;75.88
13033;BME280;6583;42.632;23.298;2023-07-31T01:39:31;69171.13;;;-146.40;77.22
13033;BME280;6583;42.632;23.298;2023-07-31T01:41:59;69183.25;;;-146.40;78.19
13033;BME280;6583;42.632;23.298;2023-07-31T01:44:26;69187.28;;;-146.40;79.61
13033;BME280;6583;42.632;23.298;2023-07-31T01:46:53;69209.53;;;-146.40;80.86
13033;BME280;6583;42.632;23.298;2023-07-31T01:49:20;69213.59;;;-146.40;80.96
13033;BME280;6583;42.632;23.298;2023-07-31T01:51:46;69217.63;;;-146.40;81.58
13033;BME280;6583;42.632;23.298;2023-07-31T01:54:13;69213.59;;;-146.40;81.17
13033;BME280;6583;42.632;23.298;2023-07-31T01:56:40;69219.66;;;-146.40;82.90
13033;BME280;6583;42.632;23.298;2023-07-31T01:59:08;69225.72;;;-146.40;82.59
13033;BME280;6583;42.632;23.298;2023-07-31T02:01:35;69235.84;;;-146.40;82.85
13033;BME280;6583;42.632;23.298;2023-07-31T02:04:01;69227.75;;;-146.40;82.39
13033;BME280;6583;42.632;23.298;2023-07-31T02:06:30;69239.88;;;-146.40;83.28
13033;BME280;6583;42.632;23.298;2023-07-31T02:08:56;69243.91;;;-146.40;82.82
13033;BME280;6583;42.632;23.298;2023-07-31T02:11:23;69237.84;;;-146.40;82.44
13033;BME280;6583;42.632;23.298;2023-07-31T02:13:50;69227.75;;;-146.40;82.34
13033;BME280;6583;42.632;23.298;2023-07-31T02:16:18;69227.75;;;-146.40;82.25
13033;BME280;6583;42.632;23.298;2023-07-31T02:18:44;69225.72;;;-146.40;81.80
13033;BME280;6583;42.632;23.298;2023-07-31T02:21:11;69235.84;;;-146.40;82.19
13033;BME280;6583;42.632;23.298;2023-07-31T02:23:38;69237.84;;;-146.40;82.97
13033;BME280;6583;42.632;23.298;2023-07-31T02:26:04;69237.84;;;-146.40;82.71
13033;BME280;6583;42.632;23.298;2023-07-31T02:28:31;69239.88;;;-146.40;82.92
13033;BME280;6583;42.632;23.298;2023-07-31T02:30:58;69243.91;;;-146.40;83.37
13033;BME280;6583;42.632;23.298;2023-07-31T02:33:26;69237.84;;;-146.40;83.57
13033;BME280;6583;42.632;23.298;2023-07-31T02:35:52;69231.78;;;-146.40;82.75
13033;BME280;6583;42.632;23.298;2023-07-31T02:38:19;69225.72;;;-146.40;83.37
13033;BME280;6583;42.632;23.298;2023-07-31T02:40:45;69223.69;;;-146.40;82.36
13033;BME280;6583;42.632;23.298;2023-07-31T02:43:13;69231.78;;;-146.40;82.33
13033;BME280;6583;42.632;23.298;2023-07-31T02:45:40;69235.84;;;-146.40;82.39
13033;BME280;6583;42.632;23.298;2023-07-31T02:48:06;69239.88;;;-146.40;83.07
13033;BME280;6583;42.632;23.298;2023-07-31T02:50:34;69237.84;;;-146.40;81.92
13033;BME280;6583;42.632;23.298;2023-07-31T02:53:01;69231.78;;;-146.40;81.86
13033;BME280;6583;42.632;23.298;2023-07-31T02:55:28;69241.91;;;-146.40;81.30
13033;BME280;6583;42.632;23.298;2023-07-31T02:57:54;69235.84;;;-146.40;81.56
13033;BME280;6583;42.632;23.298;2023-07-31T03:00:21;69227.75;;;-146.40;80.82
13033;BME280;6583;42.632;23.298;2023-07-31T03:02:48;69221.69;;;-146.40;80.83
13033;BME280;6583;42.632;23.298;2023-07-31T03:05:15;69225.72;;;-146.40;80.11
13033;BME280;6583;42.632;23.298;2023-07-31T03:07:43;69211.56;;;-146.40;80.79
13033;BME280;6583;42.632;23.298;2023-07-31T03:10:10;69213.59;;;-146.40;80.43
13033;BME280;6583;42.632;23.298;2023-07-31T03:12:36;69203.47;;;-146.40;81.20
13033;BME280;6583;42.632;23.298;2023-07-31T03:15:04;69203.47;;;-146.40;80.02
13033;BME280;6583;42.632;23.298;2023-07-31T03:17:30;69205.50;;;-146.40;78.64
13033;BME280;6583;42.632;23.298;2023-07-31T03:19:57;69207.53;;;-146.40;78.72
13033;BME280;6583;42.632;23.298;2023-07-31T03:22:24;69211.56;;;-146.40;79.27
13033;BME280;6583;42.632;23.298;2023-07-31T03:24:52;69207.53;;;-146.40;79.62
13033;BME280;6583;42.632;23.298;2023-07-31T03:27:19;69211.56;;;-146.40;79.58
13033;BME280;6583;42.632;23.298;2023-07-31T03:29:45;69219.66;;;-146.40;78.41
13033;BME280;6583;42.632;23.298;2023-07-31T03:32:12;69219.66;;;-146.40;79.40
13033;BME280;6583;42.632;23.298;2023-07-31T03:34:38;69215.59;;;-146.40;79.16
13033;BME280;6583;42.632;23.298;2023-07-31T03:37:05;69223.69;;;-146.40;78.56
13033;BME280;6583;42.632;23.298;2023-07-31T03:39:37;69219.66;;;-146.40;78.42
13033;BME280;6583;42.632;23.298;2023-07-31T03:42:06;69219.66;;;-146.40;77.88
13033;BME280;6583;42.632;23.298;2023-07-31T03:44:33;69219.66;;;-146.40;78.87
13033;BME280;6583;42.632;23.298;2023-07-31T03:46:59;69223.69;;;-146.40;78.95
13033;BME280;6583;42.632;23.298;2023-07-31T03:49:26;69231.78;;;-146.40;78.48
13033;BME280;6583;42.632;23.298;2023-07-31T03:51:56;69233.81;;;-146.40;78.82
13033;BME280;6583;42.632;23.298;2023-07-31T03:54:22;69243.91;;;-146.40;79.01
13033;BME280;6583;42.632;23.298;2023-07-31T03:56:49;69237.84;;;-146.40;79.05
13033;BME280;6583;42.632;23.298;2023-07-31T03:59:17;69243.91;;;-146.40;79.42
13033;BME280;6583;42.632;23.298;2023-07-31T04:01:44;69247.97;;;-146.40;78.49
13033;BME280;6583;42.632;23.298;2023-07-31T04:04:10;69250.00;;;-146.40;78.98
13033;BME280;6583;42.632;23.298;2023-07-31T04:06:37;69245.94;;;-146.40;78.78
13033;BME280;6583;42.632;23.298;2023-07-31T04:09:04;69235.84;;;-146.40;78.66
13033;BME280;6583;42.632;23.298;2023-07-31T04:11:30;69235.84;;;-146.40;78.01
13033;BME280;6583;42.632;23.298;2023-07-31T04:13:57;69241.91;;;-146.40;77.15
13033;BME280;6583;42.632;23.298;2023-07-31T04:16:25;69239.88;;;-146.40;78.33
13033;BME280;6583;42.632;23.298;2023-07-31T04:18:52;69247.97;;;-146.40;77.57
13033;BME280;6583;42.632;23.298;2023-07-31T04:21:18;69250.00;;;-146.40;76.60
13033;BME280;6583;42.632;23.298;2023-07-31T04:23:45;69256.06;;;-146.40;76.79
13033;BME280;6583;42.632;23.298;2023-07-31T04:26:12;69250.00;;;-146.40;76.79
13033;BME280;6583;42.632;23.298;2023-07-31T04:28:38;69241.91;;;-146.40;76.85
13033;BME280;6583;42.632;23.298;2023-07-31T04:31:05;69241.91;;;-146.40;76.32
13033;BME280;6583;42.632;23.298;2023-07-31T04:33:33;69243.91;;;-146.40;75.72
13033;BME280;6583;42.632;23.298;2023-07-31T04:35:59;69247.97;;;-146.40;75.41
13033;BME280;6583;42.632;23.298;2023-07-31T04:38:26;69247.97;;;-146.40;75.51
13033;BME280;6583;42.632;23.298;2023-07-31T04:40:53;69252.00;;;-146.40;75.46
13033;BME280;6583;42.632;23.298;2023-07-31T04:43:19;69268.19;;;-146.40;75.21
13033;BME280;6583;42.632;23.298;2023-07-31T04:45:46;69254.03;;;-146.40;75.38
13033;BME280;6583;42.632;23.298;2023-07-31T04:48:13;69260.09;;;-146.40;76.13
13033;BME280;6583;42.632;23.298;2023-07-31T04:50:42;69264.16;;;-146.40;74.05
13033;BME280;6583;42.632;23.298;2023-07-31T04:53:08;69260.09;;;-146.40;73.87
13033;BME280;6583;42.632;23.298;2023-07-31T04:55:35;69266.16;;;-146.40;73.95
13033;BME280;6583;42.632;23.298;2023-07-31T04:58:02;69252.00;;;-146.40;74.31
13033;BME280;6583;42.632;23.298;2023-07-31T05:00:28;69237.84;;;-146.40;73.85
13033;BME280;6583;42.632;23.298;2023-07-31T05:02:55;69231.78;;;-146.40;73.89
13033;BME280;6583;42.632;23.298;2023-07-31T05:05:21;69219.66;;;-146.40;73.13
13033;BME280;6583;42.632;23.298;2023-07-31T05:07:49;69199.44;;;-146.40;72.48
13033;BME280;6583;42.632;23.298;2023-07-31T05:10:16;69193.38;;;-146.40;71.17
13033;BME280;6583;42.632;23.298;2023-07-31T05:12:43;69193.38;;;-146.40;72.07
13033;BME280;6583;42.632;23.298;2023-07-31T05:15:09;69191.34;;;-146.40;69.19
13033;BME280;6583;42.632;23.298;2023-07-31T05:17:36;69173.13;;;-146.40;69.21
13033;BME280;6583;42.632;23.298;2023-07-31T05:20:03;69163.03;;;-146.40;69.53
13033;BME280;6583;42.632;23.298;2023-07-31T05:22:30;69158.97;;;-146.40;69.17
13033;BME280;6583;42.632;23.298;2023-07-31T05:24:58;69154.94;;;-146.40;69.07
13033;BME280;6583;42.632;23.298;2023-07-31T05:27:25;69142.81;;;-146.40;68.10
13033;BME280;6583;42.632;23.298;2023-07-31T05:29:51;69140.78;;;-146.40;67.88
13033;BME280;6583;42.632;23.298;2023-07-31T05:32:18;69134.72;;;-146.40;67.79
13033;BME280;6583;42.632;23.298;2023-07-31T05:34:45;69130.66;;;-146.40;68.14
13033;BME280;6583;42.632;23.298;2023-07-31T05:37:11;69122.56;;;-146.40;67.05
13033;BME280;6583;42.632;23.298;2023-07-31T05:39:38;69118.53;;;-146.40;67.46
13033;BME280;6583;42.632;23.298;2023-07-31T05:42:06;69116.50;;;-146.40;67.36
13033;BME280;6583;42.632;23.298;2023-07-31T05:44:33;69110.44;;;-146.40;66.95
13033;BME280;6583;42.632;23.298;2023-07-31T05:47:00;69098.31;;;-146.40;67.01
13033;BME280;6583;42.632;23.298;2023-07-31T05:49:26;69078.09;;;-146.40;66.46
13033;BME280;6583;42.632;23.298;2023-07-31T05:51:53;69072.03;;;-146.40;64.90
13033;BME280;6583;42.632;23.298;2023-07-31T05:54:20;69074.03;;;-146.40;65.13
13033;BME280;6583;42.632;23.298;2023-07-31T05:56:46;69090.22;;;-146.40;62.76
13033;BME280;6583;42.632;23.298;2023-07-31T05:59:15;69074.03;;;-146.40;64.51
13033;BME280;6583;42.632;23.298;2023-07-31T06:01:42;69065.94;;;-146.40;64.32
13033;BME280;6583;42.632;23.298;2023-07-31T06:04:09;69045.72;;;-146.40;64.53
13033;BME280;6583;42.632;23.298;2023-07-31T06:06:35;69037.63;;;-146.40;64.58
13033;BME280;6583;42.632;23.298;2023-07-31T06:09:02;69017.41;;;-146.40;62.96
13033;BME280;6583;42.632;23.298;2023-07-31T06:11:29;69017.41;;;-146.40;60.18
13033;BME280;6583;42.632;23.298;2023-07-31T06:13:56;69001.25;;;-146.40;60.25
13033;BME280;6583;42.632;23.298;2023-07-31T06:16:24;68997.19;;;-146.40;59.05
13033;BME280;6583;42.632;23.298;2023-07-31T06:18:52;68983.03;;;-146.40;60.09
13033;BME280;6583;42.632;23.298;2023-07-31T06:21:19;68979.00;;;-146.40;58.07
13033;BME280;6583;42.632;23.298;2023-07-31T06:23:47;68956.75;;;-146.40;58.72
13033;BME280;6583;42.632;23.298;2023-07-31T06:26:13;68956.75;;;-146.40;57.13
13033;BME280;6583;42.632;23.298;2023-07-31T06:28:40;68956.75;;;-146.40;56.07
13033;BME280;6583;42.632;23.298;2023-07-31T06:31:07;68958.78;;;-146.40;55.33
13033;BME280;6583;42.632;23.298;2023-07-31T06:33:35;68924.38;;;-146.40;55.72
13033;BME280;6583;42.632;23.298;2023-07-31T06:36:01;68904.16;;;-146.40;55.00
13033;BME280;6583;42.632;23.298;2023-07-31T06:38:28;68890.00;;;-146.40;55.63
13033;BME280;6583;42.632;23.298;2023-07-31T06:40:55;68875.84;;;-146.40;52.58
13033;BME280;6583;42.632;23.298;2023-07-31T06:43:21;68863.72;;;-146.40;52.79
13033;BME280;6583;42.632;23.298;2023-07-31T06:45:48;68855.63;;;-146.40;52.42
13033;BME280;6583;42.632;23.298;2023-07-31T06:48:16;68849.56;;;-146.40;52.69
13033;BME280;6583;42.632;23.298;2023-07-31T06:50:44;68835.41;;;-146.40;51.62
13033;BME280;6583;42.632;23.298;2023-07-31T06:53:11;68837.44;;;-146.40;51.51
13033;BME280;6583;42.632;23.298;2023-07-31T06:55:38;68845.53;;;-146.40;51.00
13033;BME280;6583;42.632;23.298;2023-07-31T06:58:04;68831.38;;;-146.40;51.61
13033;BME280;6583;42.632;23.298;2023-07-31T07:00:31;68839.47;;;-146.40;50.26
13033;BME280;6583;42.632;23.298;2023-07-31T07:02:58;68831.38;;;-146.40;48.68
13033;BME280;6583;42.632;23.298;2023-07-31T07:05:25;68837.44;;;-146.40;48.97
13033;BME280;6583;42.632;23.298;2023-07-31T07:07:53;68839.47;;;-146.40;50.00
13033;BME280;6583;42.632;23.298;2023-07-31T07:10:20;68845.53;;;-146.40;50.02
13033;BME280;6583;42.632;23.298;2023-07-31T07:12:47;68827.31;;;-146.40;51.13
13033;BME280;6583;42.632;23.298;2023-07-31T07:15:14;68827.31;;;-146.40;50.31
13033;BME280;6583;42.632;23.298;2023-07-31T07:17:40;68813.16;;;-146.40;50.33
13033;BME280;6583;42.632;23.298;2023-07-31T07:20:08;68819.22;;;-146.40;50.82
13033;BME280;6583;42.632;23.298;2023-07-31T07:22:34;68825.31;;;-146.40;50.08
13033;BME280;6583;42.632;23.298;2023-07-31T07:25:03;68829.34;;;-146.40;48.92
13033;BME280;6583;42.632;23.298;2023-07-31T07:27:30;68831.38;;;-146.40;49.09
13033;BME280;6583;42.632;23.298;2023-07-31T07:29:56;68803.06;;;-146.40;48.58
13033;BME280;6583;42.632;23.298;2023-07-31T07:32:23;68790.94;;;-146.40;47.96
13033;BME280;6583;42.632;23.298;2023-07-31T07:34:50;68770.69;;;-146.40;48.07
13033;BME280;6583;42.632;23.298;2023-07-31T07:37:16;68756.53;;;-146.40;48.01
13033;BME280;6583;42.632;23.298;2023-07-31T07:39:43;68760.59;;;-146.40;45.77
13033;BME280;6583;42.632;23.298;2023-07-31T07:42:11;68774.75;;;-146.40;47.20
13033;BME280;6583;42.632;23.298;2023-07-31T07:44:38;68756.53;;;-146.40;46.67
13033;BME280;6583;42.632;23.298;2023-07-31T07:47:05;68770.69;;;-146.40;46.05
13033;BME280;6583;42.632;23.298;2023-07-31T07:49:32;68774.75;;;-146.40;46.02
13033;BME280;6583;42.632;23.298;2023-07-31T07:51:59;68821.25;;;-146.40;46.44
13033;BME280;6583;42.632;23.298;2023-07-31T07:54:26;68807.09;;;-146.40;46.20
13033;BME280;6583;42.632;23.298;2023-07-31T07:56:53;68799.00;;;-146.40;47.39
13033;BME280;6583;42.632;23.298;2023-07-31T07:59:21;68790.94;;;-146.40;46.53
13033;BME280;6583;42.632;23.298;2023-07-31T08:01:47;68772.72;;;-146.40;46.94
13033;BME280;6583;42.632;23.298;2023-07-31T08:04:14;68782.84;;;-146.40;45.84
13033;BME280;6583;42.632;23.298;2023-07-31T08:06:40;68778.78;;;-146.40;46.61
13033;BME280;6583;42.632;23.298;2023-07-31T08:09:07;68778.78;;;-146.40;46.01
13033;BME280;6583;42.632;23.298;2023-07-31T08:11:34;68799.00;;;-146.40;46.00
13033;BME280;6583;42.632;23.298;2023-07-31T08:14:01;68794.97;;;-146.40;46.71
13033;BME280;6583;42.632;23.298;2023-07-31T08:16:29;68778.78;;;-146.40;46.56
13033;BME280;6583;42.632;23.298;2023-07-31T08:18:55;68790.94;;;-146.40;45.33
13033;BME280;6583;42.632;23.298;2023-07-31T08:21:22;68811.16;;;-146.40;45.92
13033;BME280;6583;42.632;23.298;2023-07-31T08:23:49;68786.88;;;-146.40;45.24
13033;BME280;6583;42.632;23.298;2023-07-31T08:26:16;68750.47;;;-146.40;45.79
13033;BME280;6583;42.632;23.298;2023-07-31T08:28:43;68732.28;;;-146.40;45.58
13033;BME280;6583;42.632;23.298;2023-07-31T08:31:09;68693.84;;;-146.40;45.04
13033;BME280;6583;42.632;23.298;2023-07-31T08:33:38;68681.72;;;-146.40;43.90
13033;BME280;6583;42.632;23.298;2023-07-31T08:36:05;68693.84;;;-146.40;43.94
13033;BME280;6583;42.632;23.298;2023-07-31T08:38:32;68722.16;;;-146.40;43.35
13033;BME280;6583;42.632;23.298;2023-07-31T08:40:59;68742.38;;;-146.40;44.35
13033;BME280;6583;42.632;23.298;2023-07-31T08:43:26;68732.28;;;-146.40;43.26
13033;BME280;6583;42.632;23.298;2023-07-31T08:45:53;68734.31;;;-146.40;43.59
13033;BME280;6583;42.632;23.298;2023-07-31T08:48:23;68718.13;;;-146.40;42.90
13033;BME280;6583;42.632;23.298;2023-07-31T08:50:51;68708.00;;;-146.40;42.90
13033;BME280;6583;42.632;23.298;2023-07-31T08:53:18;68710.03;;;-146.40;42.94
13033;BME280;6583;42.632;23.298;2023-07-31T08:55:45;68720.16;;;-146.40;43.62
13033;BME280;6583;42.632;23.298;2023-07-31T08:58:12;68764.63;;;-146.40;44.08
13033;BME280;6583;42.632;23.298;2023-07-31T09:00:39;68786.88;;;-146.40;43.90
13033;BME280;6583;42.632;23.298;2023-07-31T09:03:09;68790.94;;;-146.40;43.92
13033;BME280;6583;42.632;23.298;2023-07-31T09:05:42;68780.81;;;-146.40;44.01
13033;BME280;6583;42.632;23.298;2023-07-31T09:08:11;68756.53;;;-146.40;44.08
13033;BME280;6583;42.632;23.298;2023-07-31T09:10:41;68758.56;;;-146.40;43.35
13033;BME280;6583;42.632;23.298;2023-07-31T09:13:08;68742.38;;;-146.40;43.19
13033;BME280;6583;42.632;23.298;2023-07-31T09:15:35;68746.44;;;-146.40;43.00
13033;BME280;6583;42.632;23.298;2023-07-31T09:18:05;68742.38;;;-146.40;42.70
13033;BME280;6583;42.632;23.298;2023-07-31T09:20:32;68766.66;;;-146.40;42.26
13033;BME280;6583;42.632;23.298;2023-07-31T09:23:05;68782.84;;;-146.40;42.79
13033;BME280;6583;42.632;23.298;2023-07-31T09:25:34;68776.78;;;-146.40;43.60
13033;BME280;6583;42.632;23.298;2023-07-31T09:28:02;68748.47;;;-146.40;42.80
13033;BME280;6583;42.632;23.298;2023-07-31T09:30:29;68732.28;;;-146.40;42.74
13033;BME280;6583;42.632;23.298;2023-07-31T09:33:01;68697.91;;;-146.40;42.44
13033;BME280;6583;42.632;23.298;2023-07-31T09:35:29;68681.72;;;-146.40;41.76
13033;BME280;6583;42.632;23.298;2023-07-31T09:37:57;68689.81;;;-146.40;41.73
13033;BME280;6583;42.632;23.298;2023-07-31T09:40:25;68687.78;;;-146.40;42.18
13033;BME280;6583;42.632;23.298;2023-07-31T09:42:55;68693.84;;;-146.40;41.65
13033;BME280;6583;42.632;23.298;2023-07-31T09:45:23;68691.84;;;-146.40;42.22
13033;BME280;6583;42.632;23.298;2023-07-31T09:47:50;68697.91;;;-146.40;41.44
13033;BME280;6583;42.632;23.298;2023-07-31T09:50:17;68669.59;;;-146.40;41.42
13033;BME280;6583;42.632;23.298;2023-07-31T09:52:44;68653.41;;;-146.40;41.67
13033;BME280;6583;42.632;23.298;2023-07-31T09:55:10;68633.19;;;-146.40;42.58
13033;BME280;6583;42.632;23.298;2023-07-31T09:57:40;68608.94;;;-146.40;40.69
13033;BME280;6583;42.632;23.298;2023-07-31T10:00:09;68598.81;;;-146.40;40.75
13033;BME280;6583;42.632;23.298;2023-07-31T10:02:37;68592.75;;;-146.40;40.58
13033;BME280;6583;42.632;23.298;2023-07-31T10:05:05;68596.78;;;-146.40;40.77
13033;BME280;6583;42.632;23.298;2023-07-31T10:07:36;68574.56;;;-146.40;39.85
13033;BME280;6583;42.632;23.298;2023-07-31T10:10:04;68566.47;;;-146.40;39.78
13033;BME280;6583;42.632;23.298;2023-07-31T10:12:33;68550.28;;;-146.40;39.63
13033;BME280;6583;42.632;23.298;2023-07-31T10:15:01;68532.09;;;-146.40;38.82
13033;BME280;6583;42.632;23.298;2023-07-31T10:17:31;68532.09;;;-146.40;38.36
13033;BME280;6583;42.632;23.298;2023-07-31T10:20:01;68532.09;;;-146.40;37.95
13033;BME280;6583;42.632;23.298;2023-07-31T10:22:30;68521.97;;;-146.40;38.81
13033;BME280;6583;42.632;23.298;2023-07-31T10:24:58;68546.25;;;-146.40;37.69
13033;BME280;6583;42.632;23.298;2023-07-31T10:27:25;68534.13;;;-146.40;38.50
13033;BME280;6583;42.632;23.298;2023-07-31T10:29:53;68515.91;;;-146.40;37.86
13033;BME280;6583;42.632;23.298;2023-07-31T10:32:21;68521.97;;;-146.40;36.98
13033;BME280;6583;42.632;23.298;2023-07-31T10:34:50;68507.81;;;-146.40;37.19
13033;BME280;6583;42.632;23.298;2023-07-31T10:37:25;68513.91;;;-146.40;37.04
13033;BME280;6583;42.632;23.298;2023-07-31T10:39:59;68513.91;;;-146.40;37.96
13033;BME280;6583;42.632;23.298;2023-07-31T10:42:31;68515.91;;;-146.40;37.22
13033;BME280;6583;42.632;23.298;2023-07-31T10:45:00;68499.75;;;-146.40;36.64
13033;BME280;6583;42.632;23.298;2023-07-31T10:47:27;68491.66;;;-146.40;37.11
13033;BME280;6583;42.632;23.298;2023-07-31T10:50:19;68499.75;;;-146.40;37.56
13033;BME280;6583;42.632;23.298;2023-07-31T10:52:47;68491.66;;;-146.40;37.26
13033;BME280;6583;42.632;23.298;2023-07-31T10:55:29;68503.78;;;-146.40;36.67
13033;BME280;6583;42.632;23.298;2023-07-31T10:57:57;68501.75;;;-146.40;37.38
13033;BME280;6583;42.632;23.298;2023-07-31T11:00:26;68511.88;;;-146.40;36.89
13033;BME280;6583;42.632;23.298;2023-07-31T11:03:04;68495.69;;;-146.40;37.08
13033;BME280;6583;42.632;23.298;2023-07-31T11:05:46;68493.69;;;-146.40;37.01
13033;BME280;6583;42.632;23.298;2023-07-31T11:08:14;68487.59;;;-146.40;36.44
13033;BME280;6583;42.632;23.298;2023-07-31T11:10:42;68467.38;;;-146.40;36.83
13033;BME280;6583;42.632;23.298;2023-07-31T11:13:09;68461.31;;;-146.40;36.89
13033;BME280;6583;42.632;23.298;2023-07-31T11:15:36;68461.31;;;-146.40;34.86
13033;BME280;6583;42.632;23.298;2023-07-31T11:18:03;68467.38;;;-146.40;35.05
13033;BME280;6583;42.632;23.298;2023-07-31T11:20:31;68479.53;;;-146.40;34.91
13033;BME280;6583;42.632;23.298;2023-07-31T11:23:00;68475.47;;;-146.40;35.44
13033;BME280;6583;42.632;23.298;2023-07-31T11:25:29;68491.66;;;-146.40;34.90
13033;BME280;6583;42.632;23.298;2023-07-31T11:27:56;68477.50;;;-146.40;35.34
13033;BME280;6583;42.632;23.298;2023-07-31T11:30:22;68477.50;;;-146.40;35.16
13033;BME280;6583;42.632;23.298;2023-07-31T11:32:49;68467.38;;;-146.40;35.30
13033;BME280;6583;42.632;23.298;2023-07-31T11:35:16;68463.34;;;-146.40;35.31
13033;BME280;6583;42.632;23.298;2023-07-31T11:37:44;68461.31;;;-146.40;35.05
13033;BME280;6583;42.632;23.298;2023-07-31T11:40:12;68443.13;;;-146.40;35.28
13033;BME280;6583;42.632;23.298;2023-07-31T11:42:39;68435.03;;;-146.40;35.27
13033;BME280;6583;42.632;23.298;2023-07-31T11:45:07;68451.22;;;-146.40;34.95
13033;BME280;6583;42.632;23.298;2023-07-31T11:47:35;68439.09;;;-146.40;36.06
13033;BME280;6583;42.632;23.298;2023-07-31T11:50:03;68441.09;;;-146.40;35.42
13033;BME280;6583;42.632;23.298;2023-07-31T11:52:34;68443.13;;;-146.40;35.88
13033;BME280;6583;42.632;23.298;2023-07-31T11:55:04;68445.16;;;-146.40;36.19
13033;BME280;6583;42.632;23.298;2023-07-31T11:57:33;68435.03;;;-146.40;36.00
13033;BME280;6583;42.632;23.298;2023-07-31T11:59:59;68428.97;;;-146.40;35.49
13033;BME280;6583;42.632;23.298;2023-07-31T12:02:26;68439.09;;;-146.40;35.69
13033;BME280;6583;42.632;23.298;2023-07-31T12:04:53;68451.22;;;-146.40;35.24
13033;BME280;6583;42.632;23.298;2023-07-31T12:07:20;68463.34;;;-146.40;36.20
13033;BME280;6583;42.632;23.298;2023-07-31T12:09:53;68451.22;;;-146.40;35.49
13033;BME280;6583;42.632;23.298;2023-07-31T12:12:20;68439.09;;;-146.40;35.60
13033;BME280;6583;42.632;23.298;2023-07-31T12:14:49;68453.22;;;-146.40;35.49
13033;BME280;6583;42.632;23.298;2023-07-31T12:17:17;68461.31;;;-146.40;35.53
13033;BME280;6583;42.632;23.298;2023-07-31T12:19:45;68461.31;;;-146.40;35.64
13033;BME280;6583;42.632;23.298;2023-07-31T12:22:12;68475.47;;;-146.40;35.41
13033;BME280;6583;42.632;23.298;2023-07-31T12:24:39;68467.38;;;-146.40;36.46
13033;BME280;6583;42.632;23.298;2023-07-31T12:27:10;68477.50;;;-146.40;36.27
13033;BME280;6583;42.632;23.298;2023-07-31T12:29:38;68473.47;;;-146.40;36.94
13033;BME280;6583;42.632;23.298;2023-07-31T12:32:19;68461.31;;;-146.40;35.66
13033;BME280;6583;42.632;23.298;2023-07-31T12:34:46;68481.53;;;-146.40;36.50
13033;BME280;6583;42.632;23.298;2023-07-31T12:37:13;68481.53;;;-146.40;37.39
13033;BME280;6583;42.632;23.298;2023-07-31T12:39:39;68501.75;;;-146.40;37.11
13033;BME280;6583;42.632;23.298;2023-07-31T12:42:06;68497.72;;;-146.40;37.20